Nearby METAR Reports

 

LGBL - Nea Anchialos, Greece
Distance from station: ΝΔ 21km
Ενημερώθηκε: 23/08/2014 10:20
Αίθριος
Αίθριος
 Ανεμος από Α
Ανεμος: Α 9 km/h
Θερμοκρασία: 28°C
Heat Index: 29°C
Σημείο Δρόσου: 20°C
Υγρασία: 62%
Βαρόμετρο: 1014 hPa
Περίληψη: Αίθριος
Visibility: greater than 10 km
2014/08/23 07:20 LGBL 230720Z 10005KT CAVOK 28/20 Q1014 NOSIG
LGSK - Skiathos Island, Greece
Distance from station: ΑΝΑ 51km
Ενημερώθηκε: 23/08/2014 09:50
Partly Cloudy
Partly Cloudy
 Ανεμος από ΒΒΑ
Ανεμος: ΒΒΑ 11 km/h
Θερμοκρασία: 28°C
Heat Index: 31°C
Σημείο Δρόσου: 23°C
Υγρασία: 74%
Βαρόμετρο: 1014 hPa
Clouds: Partly Cloudy
Visibility: 10 km
Cloud details: Partly Cloudy 549 m
2014/08/23 06:50 LGSK 230650Z 02006KT 9999 SCT018 28/23 Q1014
 
LGTS - Thessaloniki/Mik, Greece
Distance from station: 0 128km
Ενημερώθηκε: 23/08/2014 10:20
Αίθριος
Αίθριος
 Ανεμος από Δ
Ανεμος: Δ 11 km/h
Θερμοκρασία: 27°C
Heat Index: 29°C
Σημείο Δρόσου: 21°C
Υγρασία: 70%
Βαρόμετρο: 1014 hPa
Περίληψη: Αίθριος
Visibility: greater than 10 km
2014/08/23 07:20 LGTS 230720Z 27006KT CAVOK 27/21 Q1014 NOSIG
LGSY - Skiros, Greece
Distance from station: ΑΝΑ 139km
Ενημερώθηκε: 23/08/2014 09:50
Partly Cloudy
Partly Cloudy
 Ανεμος από ΒΔ
Ανεμος: ΒΔ 11 km/h
Θερμοκρασία: 27°C
Heat Index: 29°C
Σημείο Δρόσου: 22°C
Υγρασία: 74%
Βαρόμετρο: 1012 hPa
Clouds: Partly Cloudy
Visibility: 10 km
Cloud details: Partly Cloudy 610 m
2014/08/23 06:50 LGSY 230650Z 31006KT 9999 SCT020 27/22 Q1012 NOSIG BLU
 
LGKZ - Kozani (civ/Army, Greece
Distance from station: ΒΔ 140km
Ενημερώθηκε: 23/08/2014 09:50
Αίθριος
Αίθριος
 Ανεμος από calm
Ανεμος: Απνοια
Θερμοκρασία: 25°C
Σημείο Δρόσου: 14°C
Υγρασία: 51%
Βαρόμετρο: 1018 hPa
Περίληψη: Αίθριος
Visibility: greater than 10 km
2014/08/23 06:50 LGKZ 230650Z 00000KT CAVOK 25/14 Q1018
LGEL - Elefsis (hel-Afb, Greece
Distance from station: ΝΝΑ 153km
Ενημερώθηκε: 23/08/2014 10:20
Αίθριος
Αίθριος
 Ανεμος από Ν
Ανεμος: Ν 7 km/h
Θερμοκρασία: 32°C
Σημείο Δρόσου: 10°C
Υγρασία: 26%
Βαρόμετρο: 1013 hPa
Περίληψη: Αίθριος
Visibility: greater than 10 km
2014/08/23 07:20 LGEL 230720Z 19004KT CAVOK 32/10 Q1013 NOSIG
 
LGAV - Athens/Elef-Ven, Greece
Distance from station: ΝΝΑ 181km
Ενημερώθηκε: 23/08/2014 10:20
Αίθριος
Αίθριος
 Ανεμος από ΑΒΑ
Ανεμος: ΑΒΑ 13 km/h
Θερμοκρασία: 29°C
Heat Index: 30°C
Σημείο Δρόσου: 19°C
Υγρασία: 55%
Βαρόμετρο: 1014 hPa
Περίληψη: Αίθριος
Visibility: greater than 10 km
2014/08/23 07:20 LGAV 230720Z 07007KT 040V110 CAVOK 29/19 Q1014 NOSIG
LGIO - Ioannina, Greece
Distance from station: ΔΒΔ 187km
Ενημερώθηκε: 23/08/2014 10:20
Αίθριος
Αίθριος
 Ανεμος από Α
Ανεμος: Α 4 km/h
Θερμοκρασία: 23°C
Σημείο Δρόσου: 10°C
Υγρασία: 44%
Βαρόμετρο: 1017 hPa
Περίληψη: Αίθριος
Visibility: greater than 10 km
2014/08/23 07:20 LGIO 230720Z 09002KT CAVOK 23/10 Q1017
 
LGRX - Araxos (civ/Afb), Greece
Distance from station: ΝΔ 188km
Ενημερώθηκε: 23/08/2014 10:20
Καταχνιά, Λίγα σύννεφα
Καταχνιά, Λίγα σύννεφα
 Ανεμος από varies
Ανεμος: varies 6 km/h
Θερμοκρασία: 26°C
Σημείο Δρόσου: 23°C
Υγρασία: 84%
Βαρόμετρο: 1014 hPa
Περίληψη: Καταχνιά
Clouds: Few Clouds
Visibility: 7 km
Cloud details: Few Clouds 183 m
2014/08/23 07:20 LGRX 230720Z VRB03KT 7000 3000S BR FEW006 26/23 Q1014 NOSIG
LGLM - Limnos Island Ar, Greece
Distance from station: ΑΒΑ 205km
Ενημερώθηκε: 23/08/2014 10:20
Αίθριος
Αίθριος
 Ανεμος από ΒΑ
Ανεμος: ΒΑ 17 km/h
Θερμοκρασία: 29°C
Heat Index: 32°C
Σημείο Δρόσου: 22°C
Υγρασία: 66%
Βαρόμετρο: 1013 hPa
Περίληψη: Αίθριος
Visibility: greater than 10 km
2014/08/23 07:20 LGLM 230720Z 04009KT CAVOK 29/22 Q1013
 
LGPZ - Preveza/Aktion, Greece
Distance from station: ΔΝΔ 206km
Ενημερώθηκε: 23/08/2014 09:50
Αίθριος
Αίθριος
 Ανεμος από calm
Ανεμος: Απνοια
Θερμοκρασία: 26°C
Σημείο Δρόσου: 18°C
Υγρασία: 61%
Βαρόμετρο: 1015 hPa
Περίληψη: Αίθριος
Visibility: greater than 10 km
2014/08/23 06:50 LGPZ 230650Z 00000KT CAVOK 26/18 Q1015 NOSIG
LGAD - Andravida (civ/A, Greece
Distance from station: ΝΔ 217km
Ενημερώθηκε: 23/08/2014 10:20
Few Clouds
Few Clouds
 Ανεμος από ΒΔ
Ανεμος: ΒΔ 9 km/h
Θερμοκρασία: 27°C
Heat Index: 29°C
Σημείο Δρόσου: 21°C
Υγρασία: 70%
Βαρόμετρο: 1014 hPa
Clouds: Few Clouds
Visibility: 10 km
Cloud details: Few Clouds 549 m
2014/08/23 07:20 LGAD 230720Z 32005KT 9999 FEW018 27/21 Q1014
 
LGKV - Kavala/Chrisoupo, Greece
Distance from station: ΒΑ 223km
Ενημερώθηκε: 23/08/2014 10:20
Αίθριος
Αίθριος
 Ανεμος από calm
Ανεμος: Απνοια
Θερμοκρασία: 29°C
Heat Index: 31°C
Σημείο Δρόσου: 21°C
Υγρασία: 62%
Βαρόμετρο: 1014 hPa
Περίληψη: Αίθριος
Visibility: greater than 10 km
2014/08/23 07:20 LGKV 230720Z 00000KT CAVOK 29/21 Q1014
LGKF - Kefallinia, Greece
Distance from station: ΔΝΔ 254km
Ενημερώθηκε: 23/08/2014 09:50
Few Clouds
Few Clouds
 Ανεμος από calm
Ανεμος: Απνοια
Θερμοκρασία: 26°C
Σημείο Δρόσου: 23°C
Υγρασία: 84%
Βαρόμετρο: 1015 hPa
Clouds: Few Clouds
Visibility: 10 km
Cloud details: Few Clouds 488 m
2014/08/23 06:50 LGKF 230650Z 00000KT 9999 FEW016 26/23 Q1015
 
LGZA - Zakinthos Airpor, Greece
Distance from station: ΝΔ 255km
Ενημερώθηκε: 23/08/2014 10:20
Few Clouds
Few Clouds
 Ανεμος από calm
Ανεμος: Απνοια
Θερμοκρασία: 28°C
Heat Index: 30°C
Σημείο Δρόσου: 22°C
Υγρασία: 70%
Βαρόμετρο: 1015 hPa
Clouds: Few Clouds
Visibility: 10 km
Cloud details: Few Clouds 457 m
2014/08/23 07:20 LGZA 230720Z 00000KT 9999 FEW015 28/22 Q1015
LGKR - Ioannis Kapodist, Greece
Distance from station: Δ 262km
Ενημερώθηκε: 23/08/2014 10:20
Partly Cloudy
Partly Cloudy
 Ανεμος από ΑΝΑ
Ανεμος: ΑΝΑ 9 km/h
Θερμοκρασία: 27°C
Heat Index: 29°C
Σημείο Δρόσου: 21°C
Υγρασία: 70%
Βαρόμετρο: 1014 hPa
Clouds: Partly Cloudy
Visibility: 10 km
Cloud details: Partly Cloudy 457 m
2014/08/23 07:20 LGKR 230720Z 11005KT 9999 SCT015 27/21 Q1014 NOSIG
 
LGKL - Kalamata (hel-Af, Greece
Distance from station: ΝΝΔ 268km
Ενημερώθηκε: 23/08/2014 10:20
Αίθριος
Αίθριος
 Ανεμος από ΒΒΔ
Ανεμος: ΒΒΔ 9 km/h
Θερμοκρασία: 32°C
Σημείο Δρόσου: 7°C
Υγρασία: 21%
Βαρόμετρο: 1013 hPa
Περίληψη: Αίθριος
Visibility: greater than 10 km
2014/08/23 07:20 LGKL 230720Z 34005KT CAVOK 32/07 Q1013
LGSO - Syros, Greece
Distance from station: ΝΑ 278km
Ενημερώθηκε: 23/08/2014 09:50
Αίθριος
Αίθριος
 Ανεμος από Α
Ανεμος: Α 7 km/h
Θερμοκρασία: 28°C
Heat Index: 30°C
Σημείο Δρόσου: 22°C
Υγρασία: 70%
Βαρόμετρο: 1013 hPa
Περίληψη: Αίθριος
Visibility: greater than 10 km
2014/08/23 06:50 LGSO 230650Z 09004KT CAVOK 28/22 Q1013
 
LGHI - Chios Airport, Greece
Distance from station: ΑΝΑ 298km
Ενημερώθηκε: 23/08/2014 09:50
Αίθριος
Αίθριος
 Ανεμος από varies
Ανεμος: varies 4 km/h
Θερμοκρασία: 28°C
Heat Index: 30°C
Σημείο Δρόσου: 21°C
Υγρασία: 66%
Βαρόμετρο: 1012 hPa
Περίληψη: Αίθριος
Visibility: greater than 10 km
2014/08/23 06:50 LGHI 230650Z VRB02KT CAVOK 28/21 Q1012
LGMK - Mikonos Island, Greece
Distance from station: ΝΑ 300km
Ενημερώθηκε: 23/08/2014 10:20
Αίθριος
Αίθριος
 Ανεμος από Β
Ανεμος: Β 20 km/h
Θερμοκρασία: 28°C
Heat Index: 29°C
Σημείο Δρόσου: 19°C
Υγρασία: 58%
Βαρόμετρο: 1012 hPa
Περίληψη: Αίθριος
Visibility: greater than 10 km
2014/08/23 07:20 LGMK 230720Z 01011KT CAVOK 28/19 Q1012
 
LGAL - Alexandroupolis, Greece
Distance from station: ΒΑ 301km
Ενημερώθηκε: 23/08/2014 10:20
Αίθριος
Αίθριος
 Ανεμος από varies
Ανεμος: varies 0 km/h
Θερμοκρασία: 28°C
Heat Index: 30°C
Σημείο Δρόσου: 21°C
Υγρασία: 66%
Βαρόμετρο: 1014 hPa
Περίληψη: Αίθριος
Visibility: greater than 10 km
2014/08/23 07:20 LGAL 230720Z /////KT CAVOK 28/21 Q1014
LGMT - Mitilini, Greece
Distance from station: Α 316km
Ενημερώθηκε: 23/08/2014 10:20
Αίθριος
Αίθριος
 Ανεμος από ΒΒΑ
Ανεμος: ΒΒΑ 7 km/h
Θερμοκρασία: 29°C
Heat Index: 31°C
Σημείο Δρόσου: 21°C
Υγρασία: 62%
Βαρόμετρο: 1013 hPa
Περίληψη: Αίθριος
Visibility: greater than 10 km
2014/08/23 07:20 LGMT 230720Z 03004KT CAVOK 29/21 Q1013
 
LGPA - Paros, Greece
Distance from station: ΝΑ 321km
Ενημερώθηκε: 23/08/2014 09:50
Αίθριος
Αίθριος
 Ανεμος από Β
Ανεμος: Β 17 km/h
Θερμοκρασία: 31°C
Heat Index: 33°C
Σημείο Δρόσου: 20°C
Υγρασία: 52%
Βαρόμετρο: 1012 hPa
Περίληψη: Αίθριος
Visibility: greater than 10 km
2014/08/23 06:50 LGPA 230650Z 36009KT CAVOK 31/20 Q1012
LGNX - Naxos Airport, Greece
Distance from station: ΝΑ 330km
Ενημερώθηκε: 23/08/2014 09:50
Αίθριος
Αίθριος
 Ανεμος από ΒΒΔ
Ανεμος: ΒΒΔ 19 km/h
Θερμοκρασία: 27°C
Heat Index: 30°C
Σημείο Δρόσου: 23°C
Υγρασία: 79%
Βαρόμετρο: 1012 hPa
Περίληψη: Αίθριος
Visibility: greater than 10 km
2014/08/23 06:50 LGNX 230650Z 34010KT CAVOK 27/23 Q1012
 
LGKC - Kithira Arpt, Greece
Distance from station: Ν 343km
Ενημερώθηκε: 22/08/2014 17:50
NOT Current
Αίθριος
Αίθριος
 Ανεμος από Δ
Ανεμος: Δ 19 km/h
Θερμοκρασία: 31°C
Heat Index: 33°C
Σημείο Δρόσου: 19°C
Υγρασία: 49%
Βαρόμετρο: 1016 hPa
Περίληψη: Αίθριος
Visibility: greater than 10 km
2014/08/22 14:50 LGKC 221450Z 27010KT CAVOK 31/19 Q1016
LBSF - Sofia (observato, Bulgaria
Distance from station: Β 367km
Ενημερώθηκε: 23/08/2014 10:00
Mostly Cloudy
Mostly Cloudy
 Ανεμος από Α
Ανεμος: Α 14 km/h
Θερμοκρασία: 24°C
Σημείο Δρόσου: 20°C
Υγρασία: 78%
Βαρόμετρο: 1018 hPa
Clouds: Mostly Cloudy
Visibility: 9 km
Cloud details: Few Clouds 640 m
Mostly Cloudy 732 m
2014/08/23 07:00 LBSF 230700Z 09004MPS 9000 FEW021 BKN024 24/20 Q1018 NOSIG
 
LGSM - Samos Airport, Greece
Distance from station: ΑΝΑ 392km
Ενημερώθηκε: 23/08/2014 10:20
Αίθριος
Αίθριος
 Ανεμος από calm
Ανεμος: Απνοια
Θερμοκρασία: 30°C
Heat Index: 32°C
Σημείο Δρόσου: 20°C
Υγρασία: 55%
Βαρόμετρο: 1012 hPa
Περίληψη: Αίθριος
Visibility: greater than 10 km
2014/08/23 07:20 LGSM 230720Z 00000KT CAVOK 30/20 Q1012
LGSR - Santorini Island, Greece
Distance from station: ΝΑ 397km
Ενημερώθηκε: 23/08/2014 10:20
Αίθριος
Αίθριος
 Ανεμος από Β
Ανεμος: Β 13 km/h
Θερμοκρασία: 29°C
Heat Index: 31°C
Σημείο Δρόσου: 21°C
Υγρασία: 62%
Βαρόμετρο: 1012 hPa
Περίληψη: Αίθριος
Visibility: greater than 10 km
2014/08/23 07:20 LGSR 230720Z 35007KT CAVOK 29/21 Q1012 NOSIG
 
LGSA - Souda/Khania (af, Greece
Distance from station: ΝΝΑ 439km
Ενημερώθηκε: 23/08/2014 10:20
Αίθριος
Αίθριος
 Ανεμος από ΒΔ
Ανεμος: ΒΔ 11 km/h
Θερμοκρασία: 34°C
Σημείο Δρόσου: 9°C
Υγρασία: 21%
Βαρόμετρο: 1013 hPa
Περίληψη: Αίθριος
Visibility: greater than 10 km
2014/08/23 07:20 LGSA 230720Z 31006KT CAVOK 34/09 Q1013
LGKO - Kos Airport, Greece
Distance from station: ΝΑ 460km
Ενημερώθηκε: 23/08/2014 10:20
Αίθριος
Αίθριος
 Ανεμος από Β
Ανεμος: Β 15 km/h
Θερμοκρασία: 31°C
Σημείο Δρόσου: 14°C
Υγρασία: 35%
Βαρόμετρο: 1012 hPa
Περίληψη: Αίθριος
Visibility: greater than 10 km
2014/08/23 07:20 LGKO 230720Z 35008KT CAVOK 31/14 Q1012
 
LGIR - Iraklion (civ/Af, Greece
Distance from station: ΝΝΑ 491km
Ενημερώθηκε: 23/08/2014 10:20
Αίθριος
Αίθριος
 Ανεμος από Β
Ανεμος: Β 6 km/h
Θερμοκρασία: 30°C
Heat Index: 31°C
Σημείο Δρόσου: 18°C
Υγρασία: 49%
Βαρόμετρο: 1012 hPa
Περίληψη: Αίθριος
Visibility: greater than 10 km
2014/08/23 07:20 LGIR 230720Z 36003KT CAVOK 30/18 Q1012 NOSIG